sensor_id;sensor_type;location;lat;lon;timestamp;P1;durP1;ratioP1;P2;durP2;ratioP2
48268;SDS011;34088;52.232;5.196;2024-03-23T01:04:08;53.90;;;12.95;;
48268;SDS011;34088;52.232;5.196;2024-03-23T01:06:34;46.87;;;12.60;;
48268;SDS011;34088;52.232;5.196;2024-03-23T01:08:59;41.27;;;12.00;;
48268;SDS011;34088;52.232;5.196;2024-03-23T01:11:24;43.70;;;12.50;;
48268;SDS011;34088;52.232;5.196;2024-03-23T01:13:49;42.15;;;12.57;;
48268;SDS011;34088;52.232;5.196;2024-03-23T01:16:15;43.87;;;12.50;;
48268;SDS011;34088;52.232;5.196;2024-03-23T01:18:40;46.30;;;13.63;;
48268;SDS011;34088;52.232;5.196;2024-03-23T01:21:05;42.33;;;12.23;;
48268;SDS011;34088;52.232;5.196;2024-03-23T01:23:30;38.03;;;11.60;;
48268;SDS011;34088;52.232;5.196;2024-03-23T01:25:56;43.70;;;13.30;;
48268;SDS011;34088;52.232;5.196;2024-03-23T01:30:47;44.08;;;12.20;;
48268;SDS011;34088;52.232;5.196;2024-03-23T01:35:38;48.20;;;12.15;;
48268;SDS011;34088;52.232;5.196;2024-03-23T01:40:29;37.63;;;12.10;;
48268;SDS011;34088;52.232;5.196;2024-03-23T01:43:06;47.67;;;11.82;;
48268;SDS011;34088;52.232;5.196;2024-03-23T01:45:33;39.30;;;12.18;;
48268;SDS011;34088;52.232;5.196;2024-03-23T01:50:24;48.65;;;13.07;;
48268;SDS011;34088;52.232;5.196;2024-03-23T01:55:15;36.33;;;11.63;;
48268;SDS011;34088;52.232;5.196;2024-03-23T02:00:07;46.15;;;13.27;;
48268;SDS011;34088;52.232;5.196;2024-03-23T02:02:34;41.80;;;11.82;;
48268;SDS011;34088;52.232;5.196;2024-03-23T02:04:59;38.97;;;12.37;;
48268;SDS011;34088;52.232;5.196;2024-03-23T02:09:50;38.80;;;11.48;;
48268;SDS011;34088;52.232;5.196;2024-03-23T02:12:16;42.13;;;11.32;;
48268;SDS011;34088;52.232;5.196;2024-03-23T02:14:42;40.22;;;11.18;;
48268;SDS011;34088;52.232;5.196;2024-03-23T02:17:08;41.43;;;11.37;;
48268;SDS011;34088;52.232;5.196;2024-03-23T02:19:34;45.55;;;10.85;;
48268;SDS011;34088;52.232;5.196;2024-03-23T02:21:59;32.37;;;9.90;;
48268;SDS011;34088;52.232;5.196;2024-03-23T02:24:24;35.03;;;9.18;;
48268;SDS011;34088;52.232;5.196;2024-03-23T02:26:50;36.93;;;8.70;;
48268;SDS011;34088;52.232;5.196;2024-03-23T02:29:15;35.20;;;7.97;;
48268;SDS011;34088;52.232;5.196;2024-03-23T02:31:40;34.23;;;8.57;;
48268;SDS011;34088;52.232;5.196;2024-03-23T02:34:05;27.93;;;8.10;;
48268;SDS011;34088;52.232;5.196;2024-03-23T02:36:31;33.47;;;7.90;;
48268;SDS011;34088;52.232;5.196;2024-03-23T02:38:56;38.95;;;7.57;;
48268;SDS011;34088;52.232;5.196;2024-03-23T02:41:21;26.00;;;6.60;;
48268;SDS011;34088;52.232;5.196;2024-03-23T02:43:51;26.27;;;7.40;;
48268;SDS011;34088;52.232;5.196;2024-03-23T02:46:16;26.70;;;7.10;;
48268;SDS011;34088;52.232;5.196;2024-03-23T02:48:42;30.25;;;6.55;;
48268;SDS011;34088;52.232;5.196;2024-03-23T02:53:32;21.80;;;6.13;;
48268;SDS011;34088;52.232;5.196;2024-03-23T02:55:58;32.15;;;6.22;;
48268;SDS011;34088;52.232;5.196;2024-03-23T03:00:49;23.55;;;5.43;;
48268;SDS011;34088;52.232;5.196;2024-03-23T03:03:14;24.23;;;5.30;;
48268;SDS011;34088;52.232;5.196;2024-03-23T03:05:39;24.80;;;5.67;;
48268;SDS011;34088;52.232;5.196;2024-03-23T03:08:05;27.77;;;5.77;;
48268;SDS011;34088;52.232;5.196;2024-03-23T03:12:57;28.37;;;5.43;;
48268;SDS011;34088;52.232;5.196;2024-03-23T03:15:22;17.63;;;4.60;;
48268;SDS011;34088;52.232;5.196;2024-03-23T03:20:13;18.30;;;4.90;;
48268;SDS011;34088;52.232;5.196;2024-03-23T03:22:39;23.30;;;4.95;;
48268;SDS011;34088;52.232;5.196;2024-03-23T03:25:05;24.37;;;5.37;;
48268;SDS011;34088;52.232;5.196;2024-03-23T03:27:32;23.10;;;4.60;;
48268;SDS011;34088;52.232;5.196;2024-03-23T03:29:57;22.75;;;4.15;;
48268;SDS011;34088;52.232;5.196;2024-03-23T03:32:23;23.00;;;4.55;;
48268;SDS011;34088;52.232;5.196;2024-03-23T03:34:48;19.33;;;4.83;;
48268;SDS011;34088;52.232;5.196;2024-03-23T03:37:15;24.33;;;4.40;;
48268;SDS011;34088;52.232;5.196;2024-03-23T03:39:40;32.23;;;4.87;;
48268;SDS011;34088;52.232;5.196;2024-03-23T03:44:31;20.25;;;6.38;;
48268;SDS011;34088;52.232;5.196;2024-03-23T03:46:57;20.35;;;4.57;;
48268;SDS011;34088;52.232;5.196;2024-03-23T03:49:22;22.80;;;5.35;;
48268;SDS011;34088;52.232;5.196;2024-03-23T03:54:13;25.07;;;4.27;;
48268;SDS011;34088;52.232;5.196;2024-03-23T03:59:03;22.63;;;4.23;;
48268;SDS011;34088;52.232;5.196;2024-03-23T04:01:29;22.55;;;4.25;;
48268;SDS011;34088;52.232;5.196;2024-03-23T04:03:54;18.02;;;4.07;;
48268;SDS011;34088;52.232;5.196;2024-03-23T04:06:20;23.63;;;4.37;;
48268;SDS011;34088;52.232;5.196;2024-03-23T04:11:11;20.52;;;4.00;;
48268;SDS011;34088;52.232;5.196;2024-03-23T04:13:36;15.77;;;3.13;;
48268;SDS011;34088;52.232;5.196;2024-03-23T04:16:01;18.08;;;3.33;;
48268;SDS011;34088;52.232;5.196;2024-03-23T04:18:26;16.50;;;3.35;;
48268;SDS011;34088;52.232;5.196;2024-03-23T04:20:52;17.97;;;3.03;;
48268;SDS011;34088;52.232;5.196;2024-03-23T04:23:17;15.27;;;3.40;;
48268;SDS011;34088;52.232;5.196;2024-03-23T04:25:42;20.23;;;3.53;;
48268;SDS011;34088;52.232;5.196;2024-03-23T04:28:08;23.73;;;3.67;;
48268;SDS011;34088;52.232;5.196;2024-03-23T04:30:34;19.63;;;3.45;;
48268;SDS011;34088;52.232;5.196;2024-03-23T04:32:59;17.88;;;3.10;;
48268;SDS011;34088;52.232;5.196;2024-03-23T04:35:25;20.35;;;3.63;;
48268;SDS011;34088;52.232;5.196;2024-03-23T04:37:51;22.48;;;4.55;;
48268;SDS011;34088;52.232;5.196;2024-03-23T04:40:20;22.55;;;3.70;;
48268;SDS011;34088;52.232;5.196;2024-03-23T04:42:46;17.08;;;3.47;;
48268;SDS011;34088;52.232;5.196;2024-03-23T04:45:11;23.30;;;3.83;;
48268;SDS011;34088;52.232;5.196;2024-03-23T04:47:37;18.47;;;3.83;;
48268;SDS011;34088;52.232;5.196;2024-03-23T04:50:03;18.15;;;3.40;;
48268;SDS011;34088;52.232;5.196;2024-03-23T04:54:55;20.65;;;3.20;;
48268;SDS011;34088;52.232;5.196;2024-03-23T04:57:20;21.05;;;3.72;;
48268;SDS011;34088;52.232;5.196;2024-03-23T04:59:46;20.33;;;3.57;;
48268;SDS011;34088;52.232;5.196;2024-03-23T05:02:12;21.02;;;3.95;;
48268;SDS011;34088;52.232;5.196;2024-03-23T05:04:37;17.00;;;3.72;;
48268;SDS011;34088;52.232;5.196;2024-03-23T05:07:03;19.97;;;3.90;;
48268;SDS011;34088;52.232;5.196;2024-03-23T05:09:29;19.63;;;3.30;;
48268;SDS011;34088;52.232;5.196;2024-03-23T05:11:55;27.00;;;4.50;;
48268;SDS011;34088;52.232;5.196;2024-03-23T05:14:21;16.70;;;3.30;;
48268;SDS011;34088;52.232;5.196;2024-03-23T05:16:46;19.83;;;3.60;;
48268;SDS011;34088;52.232;5.196;2024-03-23T05:19:11;21.03;;;3.80;;
48268;SDS011;34088;52.232;5.196;2024-03-23T05:21:37;17.30;;;3.47;;
48268;SDS011;34088;52.232;5.196;2024-03-23T05:24:02;20.20;;;3.70;;
48268;SDS011;34088;52.232;5.196;2024-03-23T05:26:28;16.52;;;3.17;;
48268;SDS011;34088;52.232;5.196;2024-03-23T05:28:53;17.25;;;3.72;;
48268;SDS011;34088;52.232;5.196;2024-03-23T05:31:22;16.42;;;3.97;;
48268;SDS011;34088;52.232;5.196;2024-03-23T05:33:49;16.98;;;3.60;;
48268;SDS011;34088;52.232;5.196;2024-03-23T05:36:14;16.92;;;3.42;;
48268;SDS011;34088;52.232;5.196;2024-03-23T05:38:39;19.58;;;3.75;;
48268;SDS011;34088;52.232;5.196;2024-03-23T05:41:05;13.83;;;3.20;;
48268;SDS011;34088;52.232;5.196;2024-03-23T05:43:30;14.70;;;3.10;;
48268;SDS011;34088;52.232;5.196;2024-03-23T05:45:56;17.90;;;2.97;;
48268;SDS011;34088;52.232;5.196;2024-03-23T05:50:48;16.67;;;3.17;;
48268;SDS011;34088;52.232;5.196;2024-03-23T05:53:14;17.67;;;3.00;;
48268;SDS011;34088;52.232;5.196;2024-03-23T05:55:40;14.38;;;2.70;;
48268;SDS011;34088;52.232;5.196;2024-03-23T05:58:05;17.07;;;3.83;;
48268;SDS011;34088;52.232;5.196;2024-03-23T06:00:31;17.00;;;3.33;;
48268;SDS011;34088;52.232;5.196;2024-03-23T06:02:56;16.77;;;3.47;;
48268;SDS011;34088;52.232;5.196;2024-03-23T06:07:48;17.52;;;3.30;;
48268;SDS011;34088;52.232;5.196;2024-03-23T06:12:40;17.42;;;2.95;;
48268;SDS011;34088;52.232;5.196;2024-03-23T06:15:05;19.27;;;3.73;;
48268;SDS011;34088;52.232;5.196;2024-03-23T06:17:35;14.30;;;3.63;;
48268;SDS011;34088;52.232;5.196;2024-03-23T06:20:01;17.33;;;3.53;;
48268;SDS011;34088;52.232;5.196;2024-03-23T06:22:26;16.10;;;3.50;;
48268;SDS011;34088;52.232;5.196;2024-03-23T06:24:51;20.90;;;3.38;;
48268;SDS011;34088;52.232;5.196;2024-03-23T06:27:16;14.13;;;3.27;;
48268;SDS011;34088;52.232;5.196;2024-03-23T06:29:42;16.73;;;3.13;;
48268;SDS011;34088;52.232;5.196;2024-03-23T06:32:07;22.10;;;3.83;;
48268;SDS011;34088;52.232;5.196;2024-03-23T06:34:32;19.50;;;4.57;;
48268;SDS011;34088;52.232;5.196;2024-03-23T06:36:58;16.33;;;3.63;;
48268;SDS011;34088;52.232;5.196;2024-03-23T06:39:23;18.27;;;3.93;;
48268;SDS011;34088;52.232;5.196;2024-03-23T06:41:52;17.67;;;3.72;;
48268;SDS011;34088;52.232;5.196;2024-03-23T06:44:18;12.77;;;3.65;;
48268;SDS011;34088;52.232;5.196;2024-03-23T06:46:44;12.25;;;3.47;;
48268;SDS011;34088;52.232;5.196;2024-03-23T06:49:10;16.13;;;3.97;;
48268;SDS011;34088;52.232;5.196;2024-03-23T06:51:35;17.80;;;4.72;;
48268;SDS011;34088;52.232;5.196;2024-03-23T06:54:02;16.08;;;4.45;;
48268;SDS011;34088;52.232;5.196;2024-03-23T06:56:28;18.60;;;5.25;;
48268;SDS011;34088;52.232;5.196;2024-03-23T06:58:54;18.92;;;5.18;;
48268;SDS011;34088;52.232;5.196;2024-03-23T07:01:19;20.15;;;4.70;;
48268;SDS011;34088;52.232;5.196;2024-03-23T07:03:44;13.13;;;4.20;;
48268;SDS011;34088;52.232;5.196;2024-03-23T07:06:10;18.47;;;4.60;;
48268;SDS011;34088;52.232;5.196;2024-03-23T07:08:35;19.33;;;4.78;;
48268;SDS011;34088;52.232;5.196;2024-03-23T07:11:01;11.25;;;4.70;;
48268;SDS011;34088;52.232;5.196;2024-03-23T07:13:27;23.10;;;4.93;;
48268;SDS011;34088;52.232;5.196;2024-03-23T07:15:53;20.55;;;4.45;;
48268;SDS011;34088;52.232;5.196;2024-03-23T07:18:20;19.17;;;5.03;;
48268;SDS011;34088;52.232;5.196;2024-03-23T07:20:52;17.35;;;4.75;;
48268;SDS011;34088;52.232;5.196;2024-03-23T07:23:21;17.08;;;4.47;;
48268;SDS011;34088;52.232;5.196;2024-03-23T07:28:21;15.75;;;4.28;;
48268;SDS011;34088;52.232;5.196;2024-03-23T07:30:46;14.57;;;3.50;;
48268;SDS011;34088;52.232;5.196;2024-03-23T07:33:12;17.00;;;3.83;;
48268;SDS011;34088;52.232;5.196;2024-03-23T07:35:37;15.00;;;3.63;;
48268;SDS011;34088;52.232;5.196;2024-03-23T07:40:30;11.00;;;3.35;;
48268;SDS011;34088;52.232;5.196;2024-03-23T07:42:55;18.67;;;5.18;;
48268;SDS011;34088;52.232;5.196;2024-03-23T07:47:46;15.70;;;3.40;;
48268;SDS011;34088;52.232;5.196;2024-03-23T07:50:11;14.45;;;3.22;;
48268;SDS011;34088;52.232;5.196;2024-03-23T07:52:36;20.13;;;3.40;;
48268;SDS011;34088;52.232;5.196;2024-03-23T07:55:02;18.35;;;4.03;;
48268;SDS011;34088;52.232;5.196;2024-03-23T07:57:28;11.35;;;2.65;;
48268;SDS011;34088;52.232;5.196;2024-03-23T07:59:53;13.67;;;3.40;;
48268;SDS011;34088;52.232;5.196;2024-03-23T08:02:18;17.70;;;3.17;;
48268;SDS011;34088;52.232;5.196;2024-03-23T08:04:43;11.93;;;2.77;;
48268;SDS011;34088;52.232;5.196;2024-03-23T08:09:34;11.40;;;2.70;;
48268;SDS011;34088;52.232;5.196;2024-03-23T08:14:24;10.60;;;2.30;;
48268;SDS011;34088;52.232;5.196;2024-03-23T08:19:16;13.82;;;2.85;;
48268;SDS011;34088;52.232;5.196;2024-03-23T08:21:41;14.80;;;2.28;;
48268;SDS011;34088;52.232;5.196;2024-03-23T08:24:06;12.60;;;2.38;;
48268;SDS011;34088;52.232;5.196;2024-03-23T08:28:57;18.30;;;2.67;;
48268;SDS011;34088;52.232;5.196;2024-03-23T08:31:23;16.07;;;3.00;;
48268;SDS011;34088;52.232;5.196;2024-03-23T08:33:48;13.77;;;2.47;;
48268;SDS011;34088;52.232;5.196;2024-03-23T08:38:39;14.80;;;2.97;;
48268;SDS011;34088;52.232;5.196;2024-03-23T08:41:05;9.05;;;2.20;;
48268;SDS011;34088;52.232;5.196;2024-03-23T08:43:35;11.93;;;2.35;;
48268;SDS011;34088;52.232;5.196;2024-03-23T08:46:11;13.82;;;2.05;;
48268;SDS011;34088;52.232;5.196;2024-03-23T08:48:39;15.23;;;2.58;;
48268;SDS011;34088;52.232;5.196;2024-03-23T08:51:06;16.58;;;2.45;;
48268;SDS011;34088;52.232;5.196;2024-03-23T08:53:33;12.18;;;2.85;;
48268;SDS011;34088;52.232;5.196;2024-03-23T08:55:59;10.45;;;2.30;;
48268;SDS011;34088;52.232;5.196;2024-03-23T08:58:28;19.40;;;2.65;;
48268;SDS011;34088;52.232;5.196;2024-03-23T09:00:55;11.00;;;1.92;;
48268;SDS011;34088;52.232;5.196;2024-03-23T09:03:25;15.65;;;2.33;;
48268;SDS011;34088;52.232;5.196;2024-03-23T09:05:51;13.00;;;2.45;;
48268;SDS011;34088;52.232;5.196;2024-03-23T09:10:42;7.73;;;1.53;;
48268;SDS011;34088;52.232;5.196;2024-03-23T09:13:08;14.60;;;2.33;;
48268;SDS011;34088;52.232;5.196;2024-03-23T09:17:59;13.60;;;3.15;;
48268;SDS011;34088;52.232;5.196;2024-03-23T09:22:50;15.07;;;2.43;;
48268;SDS011;34088;52.232;5.196;2024-03-23T09:27:40;12.63;;;2.47;;
48268;SDS011;34088;52.232;5.196;2024-03-23T09:30:06;13.70;;;3.17;;
48268;SDS011;34088;52.232;5.196;2024-03-23T09:32:31;11.15;;;2.55;;
48268;SDS011;34088;52.232;5.196;2024-03-23T09:34:57;14.68;;;2.83;;
48268;SDS011;34088;52.232;5.196;2024-03-23T09:37:22;10.10;;;2.90;;
48268;SDS011;34088;52.232;5.196;2024-03-23T09:39:47;10.70;;;3.10;;
48268;SDS011;34088;52.232;5.196;2024-03-23T09:42:12;16.03;;;3.33;;
48268;SDS011;34088;52.232;5.196;2024-03-23T09:44:39;13.20;;;3.00;;
48268;SDS011;34088;52.232;5.196;2024-03-23T09:47:04;14.50;;;3.15;;
48268;SDS011;34088;52.232;5.196;2024-03-23T09:51:56;17.13;;;3.05;;
48268;SDS011;34088;52.232;5.196;2024-03-23T09:54:21;14.80;;;3.03;;
48268;SDS011;34088;52.232;5.196;2024-03-23T09:56:47;16.75;;;3.17;;
48268;SDS011;34088;52.232;5.196;2024-03-23T09:59:12;12.17;;;2.90;;
48268;SDS011;34088;52.232;5.196;2024-03-23T10:04:03;11.68;;;2.85;;
48268;SDS011;34088;52.232;5.196;2024-03-23T10:08:53;12.67;;;2.63;;
48268;SDS011;34088;52.232;5.196;2024-03-23T10:11:20;14.73;;;2.70;;
48268;SDS011;34088;52.232;5.196;2024-03-23T10:13:46;16.77;;;3.30;;
48268;SDS011;34088;52.232;5.196;2024-03-23T10:16:12;12.45;;;2.85;;
48268;SDS011;34088;52.232;5.196;2024-03-23T10:18:45;12.73;;;2.60;;
48268;SDS011;34088;52.232;5.196;2024-03-23T10:21:10;14.00;;;2.45;;
48268;SDS011;34088;52.232;5.196;2024-03-23T10:26:12;13.75;;;2.85;;
48268;SDS011;34088;52.232;5.196;2024-03-23T10:31:42;13.23;;;2.67;;
48268;SDS011;34088;52.232;5.196;2024-03-23T10:34:08;15.63;;;2.53;;
48268;SDS011;34088;52.232;5.196;2024-03-23T10:38:59;13.70;;;2.70;;
48268;SDS011;34088;52.232;5.196;2024-03-23T10:41:27;12.10;;;2.00;;
48268;SDS011;34088;52.232;5.196;2024-03-23T10:43:54;11.77;;;2.58;;
48268;SDS011;34088;52.232;5.196;2024-03-23T10:46:22;12.35;;;2.95;;
48268;SDS011;34088;52.232;5.196;2024-03-23T10:48:48;13.85;;;2.83;;
48268;SDS011;34088;52.232;5.196;2024-03-23T10:53:39;14.45;;;2.55;;
48268;SDS011;34088;52.232;5.196;2024-03-23T11:01:03;12.43;;;2.35;;
48268;SDS011;34088;52.232;5.196;2024-03-23T11:03:29;12.40;;;2.65;;
48268;SDS011;34088;52.232;5.196;2024-03-23T11:06:02;12.25;;;2.60;;
48268;SDS011;34088;52.232;5.196;2024-03-23T11:08:32;13.63;;;2.60;;
48268;SDS011;34088;52.232;5.196;2024-03-23T11:13:37;16.13;;;3.05;;
48268;SDS011;34088;52.232;5.196;2024-03-23T11:16:12;19.20;;;3.33;;
48268;SDS011;34088;52.232;5.196;2024-03-23T11:18:42;14.48;;;3.25;;
48268;SDS011;34088;52.232;5.196;2024-03-23T11:21:08;12.77;;;2.25;;
48268;SDS011;34088;52.232;5.196;2024-03-23T11:23:34;11.57;;;2.40;;
48268;SDS011;34088;52.232;5.196;2024-03-23T11:28:25;17.70;;;2.43;;
48268;SDS011;34088;52.232;5.196;2024-03-23T11:33:15;16.65;;;2.63;;
48268;SDS011;34088;52.232;5.196;2024-03-23T11:35:40;9.75;;;2.60;;
48268;SDS011;34088;52.232;5.196;2024-03-23T11:40:36;15.52;;;2.40;;
48268;SDS011;34088;52.232;5.196;2024-03-23T11:43:06;12.55;;;2.45;;
48268;SDS011;34088;52.232;5.196;2024-03-23T11:45:46;17.10;;;3.05;;
48268;SDS011;34088;52.232;5.196;2024-03-23T11:48:20;9.50;;;1.80;;
48268;SDS011;34088;52.232;5.196;2024-03-23T11:50:47;10.63;;;2.42;;
48268;SDS011;34088;52.232;5.196;2024-03-23T11:53:21;10.27;;;2.00;;
48268;SDS011;34088;52.232;5.196;2024-03-23T11:55:55;9.80;;;2.40;;
48268;SDS011;34088;52.232;5.196;2024-03-23T11:58:21;13.88;;;2.42;;
48268;SDS011;34088;52.232;5.196;2024-03-23T12:03:17;11.63;;;2.33;;
48268;SDS011;34088;52.232;5.196;2024-03-23T12:05:47;13.00;;;2.33;;
48268;SDS011;34088;52.232;5.196;2024-03-23T12:08:22;11.60;;;2.33;;
48268;SDS011;34088;52.232;5.196;2024-03-23T12:10:54;10.27;;;2.40;;
48268;SDS011;34088;52.232;5.196;2024-03-23T12:13:30;8.82;;;2.03;;
48268;SDS011;34088;52.232;5.196;2024-03-23T12:15:57;10.65;;;2.40;;
48268;SDS011;34088;52.232;5.196;2024-03-23T12:18:42;8.73;;;2.20;;
48268;SDS011;34088;52.232;5.196;2024-03-23T12:21:09;10.23;;;2.17;;
48268;SDS011;34088;52.232;5.196;2024-03-23T12:23:35;10.25;;;2.20;;
48268;SDS011;34088;52.232;5.196;2024-03-23T12:26:02;15.00;;;2.47;;
48268;SDS011;34088;52.232;5.196;2024-03-23T12:28:28;13.60;;;1.95;;
48268;SDS011;34088;52.232;5.196;2024-03-23T12:33:19;9.80;;;2.22;;
48268;SDS011;34088;52.232;5.196;2024-03-23T12:35:44;11.63;;;2.33;;
48268;SDS011;34088;52.232;5.196;2024-03-23T12:40:35;9.60;;;1.80;;
48268;SDS011;34088;52.232;5.196;2024-03-23T12:45:26;15.70;;;2.38;;
48268;SDS011;34088;52.232;5.196;2024-03-23T12:50:20;10.48;;;2.40;;
48268;SDS011;34088;52.232;5.196;2024-03-23T12:55:11;8.65;;;1.42;;
48268;SDS011;34088;52.232;5.196;2024-03-23T13:00:02;8.93;;;1.98;;
48268;SDS011;34088;52.232;5.196;2024-03-23T13:02:29;11.70;;;2.20;;
48268;SDS011;34088;52.232;5.196;2024-03-23T13:04:54;9.98;;;2.08;;
48268;SDS011;34088;52.232;5.196;2024-03-23T13:09:46;8.40;;;1.80;;
48268;SDS011;34088;52.232;5.196;2024-03-23T13:14:38;9.55;;;2.25;;
48268;SDS011;34088;52.232;5.196;2024-03-23T13:17:04;10.38;;;1.88;;
48268;SDS011;34088;52.232;5.196;2024-03-23T13:19:29;11.98;;;2.42;;
48268;SDS011;34088;52.232;5.196;2024-03-23T13:24:25;15.18;;;2.20;;
48268;SDS011;34088;52.232;5.196;2024-03-23T13:26:51;12.52;;;2.20;;
48268;SDS011;34088;52.232;5.196;2024-03-23T13:29:18;11.07;;;2.10;;
48268;SDS011;34088;52.232;5.196;2024-03-23T13:34:09;13.20;;;2.20;;
48268;SDS011;34088;52.232;5.196;2024-03-23T13:39:00;11.80;;;2.83;;
48268;SDS011;34088;52.232;5.196;2024-03-23T13:41:30;13.00;;;2.17;;
48268;SDS011;34088;52.232;5.196;2024-03-23T13:43:55;8.10;;;1.80;;
48268;SDS011;34088;52.232;5.196;2024-03-23T13:46:20;6.63;;;1.53;;
48268;SDS011;34088;52.232;5.196;2024-03-23T13:51:11;10.00;;;2.05;;
48268;SDS011;34088;52.232;5.196;2024-03-23T13:53:38;11.20;;;2.28;;
48268;SDS011;34088;52.232;5.196;2024-03-23T13:56:03;7.95;;;1.95;;
48268;SDS011;34088;52.232;5.196;2024-03-23T13:58:29;12.18;;;2.13;;
48268;SDS011;34088;52.232;5.196;2024-03-23T14:00:56;10.20;;;2.10;;
48268;SDS011;34088;52.232;5.196;2024-03-23T14:03:22;6.60;;;1.60;;
48268;SDS011;34088;52.232;5.196;2024-03-23T14:05:47;10.35;;;2.03;;
48268;SDS011;34088;52.232;5.196;2024-03-23T14:08:13;9.88;;;2.00;;
48268;SDS011;34088;52.232;5.196;2024-03-23T14:10:41;9.27;;;2.22;;
48268;SDS011;34088;52.232;5.196;2024-03-23T14:13:07;11.00;;;2.28;;
48268;SDS011;34088;52.232;5.196;2024-03-23T14:15:32;9.55;;;1.52;;
48268;SDS011;34088;52.232;5.196;2024-03-23T14:20:23;9.32;;;1.90;;
48268;SDS011;34088;52.232;5.196;2024-03-23T14:22:49;8.88;;;2.30;;
48268;SDS011;34088;52.232;5.196;2024-03-23T14:25:15;12.43;;;2.42;;
48268;SDS011;34088;52.232;5.196;2024-03-23T14:27:40;7.78;;;1.90;;
48268;SDS011;34088;52.232;5.196;2024-03-23T14:30:06;9.60;;;1.93;;
48268;SDS011;34088;52.232;5.196;2024-03-23T14:32:31;7.80;;;1.65;;
48268;SDS011;34088;52.232;5.196;2024-03-23T14:35:02;8.57;;;1.80;;
48268;SDS011;34088;52.232;5.196;2024-03-23T14:37:28;10.00;;;1.75;;
48268;SDS011;34088;52.232;5.196;2024-03-23T14:39:55;12.30;;;2.17;;
48268;SDS011;34088;52.232;5.196;2024-03-23T14:42:20;11.63;;;2.00;;
48268;SDS011;34088;52.232;5.196;2024-03-23T14:44:46;8.87;;;1.83;;
48268;SDS011;34088;52.232;5.196;2024-03-23T14:47:11;8.68;;;1.98;;
48268;SDS011;34088;52.232;5.196;2024-03-23T14:52:02;11.03;;;2.43;;
48268;SDS011;34088;52.232;5.196;2024-03-23T14:54:28;14.40;;;2.47;;
48268;SDS011;34088;52.232;5.196;2024-03-23T14:56:53;12.00;;;2.42;;
48268;SDS011;34088;52.232;5.196;2024-03-23T14:59:19;10.60;;;2.30;;
48268;SDS011;34088;52.232;5.196;2024-03-23T15:01:44;10.77;;;2.13;;
48268;SDS011;34088;52.232;5.196;2024-03-23T15:04:10;12.55;;;1.85;;
48268;SDS011;34088;52.232;5.196;2024-03-23T15:06:35;7.47;;;1.98;;
48268;SDS011;34088;52.232;5.196;2024-03-23T15:11:26;12.93;;;1.90;;
48268;SDS011;34088;52.232;5.196;2024-03-23T15:13:51;8.25;;;2.13;;
48268;SDS011;34088;52.232;5.196;2024-03-23T15:16:17;10.27;;;2.10;;
48268;SDS011;34088;52.232;5.196;2024-03-23T15:18:45;8.63;;;2.20;;
48268;SDS011;34088;52.232;5.196;2024-03-23T15:21:11;11.23;;;1.98;;
48268;SDS011;34088;52.232;5.196;2024-03-23T15:23:37;7.80;;;1.73;;
48268;SDS011;34088;52.232;5.196;2024-03-23T15:26:03;11.27;;;2.03;;
48268;SDS011;34088;52.232;5.196;2024-03-23T15:28:30;7.97;;;1.73;;
48268;SDS011;34088;52.232;5.196;2024-03-23T15:31:15;10.43;;;2.20;;
48268;SDS011;34088;52.232;5.196;2024-03-23T15:33:40;10.45;;;2.85;;
48268;SDS011;34088;52.232;5.196;2024-03-23T15:38:31;14.77;;;2.58;;
48268;SDS011;34088;52.232;5.196;2024-03-23T15:40:57;11.18;;;2.30;;
48268;SDS011;34088;52.232;5.196;2024-03-23T15:43:23;10.10;;;2.08;;
48268;SDS011;34088;52.232;5.196;2024-03-23T15:45:58;12.52;;;2.85;;
48268;SDS011;34088;52.232;5.196;2024-03-23T15:48:27;12.35;;;2.40;;
48268;SDS011;34088;52.232;5.196;2024-03-23T15:53:19;10.93;;;2.30;;
48268;SDS011;34088;52.232;5.196;2024-03-23T15:55:57;9.80;;;1.98;;
48268;SDS011;34088;52.232;5.196;2024-03-23T15:58:24;9.13;;;1.90;;
48268;SDS011;34088;52.232;5.196;2024-03-23T16:03:34;11.60;;;1.83;;
48268;SDS011;34088;52.232;5.196;2024-03-23T16:06:00;8.60;;;1.40;;
48268;SDS011;34088;52.232;5.196;2024-03-23T16:08:26;5.55;;;1.42;;
48268;SDS011;34088;52.232;5.196;2024-03-23T16:10:52;8.60;;;1.63;;
48268;SDS011;34088;52.232;5.196;2024-03-23T16:13:18;5.82;;;1.85;;
48268;SDS011;34088;52.232;5.196;2024-03-23T16:15:44;7.55;;;1.95;;
48268;SDS011;34088;52.232;5.196;2024-03-23T16:20:35;8.18;;;2.15;;
48268;SDS011;34088;52.232;5.196;2024-03-23T16:25:26;8.10;;;1.95;;
48268;SDS011;34088;52.232;5.196;2024-03-23T16:30:17;7.18;;;2.42;;
48268;SDS011;34088;52.232;5.196;2024-03-23T16:32:43;9.27;;;1.95;;
48268;SDS011;34088;52.232;5.196;2024-03-23T16:35:09;7.25;;;1.50;;
48268;SDS011;34088;52.232;5.196;2024-03-23T16:37:37;5.53;;;1.45;;
48268;SDS011;34088;52.232;5.196;2024-03-23T16:40:02;7.10;;;1.97;;
48268;SDS011;34088;52.232;5.196;2024-03-23T16:44:54;6.47;;;1.63;;
48268;SDS011;34088;52.232;5.196;2024-03-23T16:47:19;9.30;;;2.00;;
48268;SDS011;34088;52.232;5.196;2024-03-23T16:49:44;4.53;;;1.55;;
48268;SDS011;34088;52.232;5.196;2024-03-23T16:52:10;3.90;;;1.40;;
48268;SDS011;34088;52.232;5.196;2024-03-23T16:54:35;4.70;;;1.67;;
48268;SDS011;34088;52.232;5.196;2024-03-23T16:57:00;5.93;;;1.27;;
48268;SDS011;34088;52.232;5.196;2024-03-23T16:59:25;6.40;;;2.20;;
48268;SDS011;34088;52.232;5.196;2024-03-23T17:01:51;6.10;;;2.17;;
48268;SDS011;34088;52.232;5.196;2024-03-23T17:04:16;5.40;;;1.67;;
48268;SDS011;34088;52.232;5.196;2024-03-23T17:06:42;4.80;;;1.50;;
48268;SDS011;34088;52.232;5.196;2024-03-23T17:09:07;4.43;;;1.40;;
48268;SDS011;34088;52.232;5.196;2024-03-23T17:11:34;6.95;;;1.63;;
48268;SDS011;34088;52.232;5.196;2024-03-23T17:14:00;8.25;;;1.58;;
48268;SDS011;34088;52.232;5.196;2024-03-23T17:16:25;4.63;;;1.57;;
48268;SDS011;34088;52.232;5.196;2024-03-23T17:18:55;8.90;;;2.70;;
48268;SDS011;34088;52.232;5.196;2024-03-23T17:21:20;8.10;;;2.70;;
48268;SDS011;34088;52.232;5.196;2024-03-23T17:23:45;9.10;;;3.47;;
48268;SDS011;34088;52.232;5.196;2024-03-23T17:26:11;7.40;;;2.83;;
48268;SDS011;34088;52.232;5.196;2024-03-23T17:28:37;9.52;;;2.70;;
48268;SDS011;34088;52.232;5.196;2024-03-23T17:31:02;7.97;;;2.25;;
48268;SDS011;34088;52.232;5.196;2024-03-23T17:33:28;5.90;;;2.08;;
48268;SDS011;34088;52.232;5.196;2024-03-23T17:35:53;9.07;;;2.17;;
48268;SDS011;34088;52.232;5.196;2024-03-23T17:38:19;7.63;;;2.13;;
48268;SDS011;34088;52.232;5.196;2024-03-23T17:40:44;7.50;;;2.30;;
48268;SDS011;34088;52.232;5.196;2024-03-23T17:43:10;6.85;;;2.25;;
48268;SDS011;34088;52.232;5.196;2024-03-23T17:45:35;10.65;;;2.72;;
48268;SDS011;34088;52.232;5.196;2024-03-23T17:48:01;7.28;;;2.88;;
48268;SDS011;34088;52.232;5.196;2024-03-23T17:50:27;8.52;;;3.10;;
48268;SDS011;34088;52.232;5.196;2024-03-23T17:52:53;10.80;;;3.05;;
48268;SDS011;34088;52.232;5.196;2024-03-23T17:57:43;11.30;;;3.33;;
48268;SDS011;34088;52.232;5.196;2024-03-23T18:00:09;7.67;;;3.50;;
48268;SDS011;34088;52.232;5.196;2024-03-23T18:02:36;11.75;;;4.65;;
48268;SDS011;34088;52.232;5.196;2024-03-23T18:05:01;8.13;;;3.58;;
48268;SDS011;34088;52.232;5.196;2024-03-23T18:07:29;9.43;;;2.72;;
48268;SDS011;34088;52.232;5.196;2024-03-23T18:09:54;8.93;;;2.95;;
48268;SDS011;34088;52.232;5.196;2024-03-23T18:14:46;9.85;;;2.35;;
48268;SDS011;34088;52.232;5.196;2024-03-23T18:19:36;8.90;;;2.50;;
48268;SDS011;34088;52.232;5.196;2024-03-23T18:24:27;6.40;;;2.15;;
48268;SDS011;34088;52.232;5.196;2024-03-23T18:26:52;6.57;;;2.40;;